createdAt,value
2023-04-03T00:00:44.133Z,101588.13
2023-04-03T00:04:45.740Z,101582.41
2023-04-03T00:08:47.315Z,101582.06
2023-04-03T00:12:48.867Z,101588.25
2023-04-03T00:16:50.539Z,101585.72
2023-04-03T00:20:52.296Z,101585.25
2023-04-03T00:24:53.862Z,101583.59
2023-04-03T00:28:55.459Z,101594.41
2023-04-03T00:32:57.122Z,101600.38
2023-04-03T00:36:58.759Z,101601.94
2023-04-03T00:41:00.484Z,101605.38
2023-04-03T00:45:02.013Z,101612.97
2023-04-03T00:49:03.592Z,101610.00
2023-04-03T00:53:07.192Z,101603.34
2023-04-03T00:57:10.047Z,101602.16
2023-04-03T01:01:16.308Z,101588.00
2023-04-03T01:05:20.250Z,101588.53
2023-04-03T01:09:22.059Z,101592.94
2023-04-03T01:13:31.337Z,101592.47
2023-04-03T01:17:39.552Z,101599.84
2023-04-03T01:21:53.468Z,101598.00
2023-04-03T01:25:57.161Z,101600.81
2023-04-03T01:29:59.228Z,101603.34
2023-04-03T01:34:00.846Z,101605.91
2023-04-03T01:38:03.768Z,101599.81
2023-04-03T01:42:05.397Z,101604.66
2023-04-03T01:46:11.684Z,101603.78
2023-04-03T01:50:13.526Z,101613.06
2023-04-03T01:54:15.424Z,101611.81
2023-04-03T01:58:17.602Z,101608.78
2023-04-03T02:02:21.178Z,101605.88
2023-04-03T02:06:22.797Z,101601.38
2023-04-03T02:10:24.419Z,101603.31
2023-04-03T02:14:28.333Z,101598.50
2023-04-03T02:18:29.893Z,101608.44
2023-04-03T02:22:31.658Z,101612.50
2023-04-03T02:26:33.281Z,101601.59
2023-04-03T02:30:35.041Z,101598.69
2023-04-03T02:34:37.029Z,101593.63
2023-04-03T02:38:39.480Z,101599.25
2023-04-03T02:42:41.169Z,101590.47
2023-04-03T02:46:42.894Z,101594.56
2023-04-03T02:50:44.618Z,101596.84
2023-04-03T02:54:46.160Z,101592.97
2023-04-03T02:58:47.942Z,101583.88
2023-04-03T03:02:51.506Z,101588.06
2023-04-03T03:06:53.402Z,101587.44
2023-04-03T03:10:54.921Z,101579.63
2023-04-03T03:14:56.563Z,101586.97
2023-04-03T03:18:59.082Z,101593.47
2023-04-03T03:23:01.076Z,101595.00
2023-04-03T03:27:02.604Z,101589.16
2023-04-03T03:31:04.750Z,101599.44
2023-04-03T03:35:07.752Z,101609.75
2023-04-03T03:39:09.289Z,101615.59
2023-04-03T03:43:10.995Z,101600.78
2023-04-03T03:47:12.816Z,101613.56
2023-04-03T03:51:14.670Z,101611.78
2023-04-03T03:55:16.332Z,101620.78
2023-04-03T03:59:18.347Z,101616.25
2023-04-03T04:03:22.036Z,101616.00
2023-04-03T04:07:24.916Z,101623.47
2023-04-03T04:11:28.640Z,101622.09
2023-04-03T04:15:32.070Z,101618.53
2023-04-03T04:19:34.247Z,101618.19
2023-04-03T04:23:36.167Z,101619.16
2023-04-03T04:27:38.947Z,101626.03
2023-04-03T04:31:41.184Z,101624.88
2023-04-03T04:35:44.636Z,101618.94
2023-04-03T04:39:47.204Z,101620.34
2023-04-03T04:43:49.924Z,101614.88
2023-04-03T04:47:53.704Z,101621.59
2023-04-03T04:51:55.878Z,101623.25
2023-04-03T04:56:03.199Z,101627.06
2023-04-03T05:00:08.447Z,101628.97
2023-04-03T05:04:10.630Z,101637.28
2023-04-03T05:08:13.666Z,101634.25
2023-04-03T05:12:17.907Z,101641.59
2023-04-03T05:16:27.225Z,101645.00
2023-04-03T05:20:30.212Z,101647.91
2023-04-03T05:24:32.892Z,101644.19
2023-04-03T05:28:35.441Z,101653.31
2023-04-03T05:32:37.401Z,101651.88
2023-04-03T05:37:01.514Z,101649.72
2023-04-03T05:41:03.797Z,101656.94
2023-04-03T05:45:05.871Z,101656.53
2023-04-03T05:49:07.522Z,101663.50
2023-04-03T05:53:21.718Z,101657.41
2023-04-03T05:57:23.436Z,101668.03
2023-04-03T06:01:25.811Z,101653.81
2023-04-03T06:05:27.811Z,101651.13
2023-04-03T06:09:30.252Z,101654.03
2023-04-03T06:13:32.411Z,101653.00
2023-04-03T06:17:34.027Z,101657.25
2023-04-03T06:21:36.751Z,101657.78
2023-04-03T06:25:38.420Z,101653.69
2023-04-03T06:29:40.060Z,101662.31
2023-04-03T06:33:41.714Z,101657.59
2023-04-03T06:37:43.325Z,101656.31
2023-04-03T06:41:45.122Z,101655.16
2023-04-03T06:45:46.873Z,101654.38
2023-04-03T06:49:48.737Z,101659.16
2023-04-03T06:53:52.469Z,101661.19
2023-04-03T06:57:53.973Z,101661.91
2023-04-03T07:01:55.602Z,101667.34
2023-04-03T07:05:57.488Z,101672.41
2023-04-03T07:09:59.183Z,101682.66
2023-04-03T07:14:00.829Z,101676.53
2023-04-03T07:18:02.750Z,101687.69
2023-04-03T07:22:04.352Z,101688.66
2023-04-03T07:26:07.499Z,101701.06
2023-04-03T07:30:10.201Z,101689.72
2023-04-03T07:34:12.286Z,101694.75
2023-04-03T07:38:14.238Z,101692.78
2023-04-03T07:42:15.848Z,101701.31
2023-04-03T07:46:18.384Z,101707.44
2023-04-03T07:50:19.983Z,101708.91
2023-04-03T07:54:21.577Z,101698.66
2023-04-03T07:58:23.158Z,101704.75
2023-04-03T08:02:24.888Z,101699.91
2023-04-03T08:06:42.117Z,101703.47
2023-04-03T08:10:52.870Z,101695.97
2023-04-03T08:14:54.446Z,101700.28
2023-04-03T08:18:56.249Z,101693.97
2023-04-03T08:22:57.800Z,101695.63
2023-04-03T08:26:59.544Z,101688.75
2023-04-03T08:31:12.036Z,101693.94
2023-04-03T08:35:13.745Z,101685.25
2023-04-03T08:39:15.352Z,101688.69
2023-04-03T08:43:49.464Z,101695.69
2023-04-03T08:47:57.404Z,101694.66
2023-04-03T08:52:01.945Z,101693.06
2023-04-03T08:56:07.700Z,101687.34
2023-04-03T09:00:15.034Z,101692.28
2023-04-03T09:04:20.634Z,101690.81
2023-04-03T09:08:37.850Z,101693.59
2023-04-03T09:12:43.657Z,101690.81
2023-04-03T09:16:58.722Z,101691.44
2023-04-03T09:21:32.804Z,101686.75
2023-04-03T09:25:38.271Z,101688.44
2023-04-03T09:29:46.998Z,101677.84
2023-04-03T09:33:55.656Z,101677.44
2023-04-03T09:38:09.663Z,101671.41
2023-04-03T09:42:23.508Z,101677.38
2023-04-03T09:46:33.986Z,101675.16
2023-04-03T09:50:37.780Z,101671.97
2023-04-03T09:54:41.771Z,101665.31
2023-04-03T09:58:50.891Z,101663.53
2023-04-03T10:02:57.130Z,101662.69
2023-04-03T10:06:58.821Z,101660.47
2023-04-03T10:11:19.804Z,101657.03
2023-04-03T10:15:21.719Z,101658.53
2023-04-03T10:19:54.448Z,101645.84
2023-04-03T10:24:11.606Z,101646.00
2023-04-03T10:28:25.433Z,101652.38
2023-04-03T10:32:58.057Z,101642.25
2023-04-03T10:37:21.295Z,101646.38
2023-04-03T10:41:47.325Z,101647.72
2023-04-03T10:45:58.718Z,101645.09
2023-04-03T10:50:23.948Z,101645.28
2023-04-03T10:54:47.314Z,101648.97
2023-04-03T10:58:58.746Z,101630.06
2023-04-03T11:03:07.026Z,101632.59
2023-04-03T11:07:19.249Z,101637.97
2023-04-03T11:11:25.052Z,101626.44
2023-04-03T11:15:29.657Z,101627.91
2023-04-03T11:19:40.186Z,101626.06
2023-04-03T11:23:49.707Z,101630.38
2023-04-03T11:27:57.605Z,101620.22
2023-04-03T11:32:33.688Z,101621.25
2023-04-03T11:36:54.713Z,101622.09
2023-04-03T11:40:58.567Z,101613.03
2023-04-03T11:45:37.982Z,101610.69
2023-04-03T11:50:00.395Z,101610.41
2023-04-03T11:54:44.962Z,101615.84
2023-04-03T11:59:11.732Z,101606.72
2023-04-03T12:03:32.048Z,101603.34
2023-04-03T12:07:34.028Z,101603.34
2023-04-03T12:11:36.994Z,101591.56
2023-04-03T12:15:38.775Z,101595.06
2023-04-03T12:19:45.778Z,101602.56
2023-04-03T12:24:04.835Z,101604.13
2023-04-03T12:28:06.903Z,101599.34
2023-04-03T12:32:38.758Z,101597.59
2023-04-03T12:36:56.520Z,101604.00
2023-04-03T12:41:12.724Z,101598.44
2023-04-03T12:45:21.298Z,101590.78
2023-04-03T12:49:39.132Z,101584.63
2023-04-03T12:53:41.523Z,101583.66
2023-04-03T12:57:43.104Z,101589.41
2023-04-03T13:01:53.542Z,101596.69
2023-04-03T13:06:04.297Z,101590.72
2023-04-03T13:10:08.963Z,101589.50
2023-04-03T13:14:20.964Z,101576.34
2023-04-03T13:18:34.555Z,101566.00
2023-04-03T13:22:44.629Z,101566.88
2023-04-03T13:26:46.697Z,101546.47
2023-04-03T13:31:02.865Z,101536.19
2023-04-03T13:35:35.666Z,101553.75
2023-04-03T13:39:39.544Z,101547.75
2023-04-03T13:43:42.011Z,101556.94
2023-04-03T13:47:46.456Z,101558.00
2023-04-03T13:51:56.961Z,101571.94
2023-04-03T13:56:17.231Z,101563.53
2023-04-03T14:00:30.954Z,101558.00
2023-04-03T14:04:58.850Z,101562.47
2023-04-03T14:09:00.466Z,101545.25
2023-04-03T14:13:02.295Z,101553.16
2023-04-03T14:17:24.830Z,101546.19
2023-04-03T14:21:27.178Z,101525.03
2023-04-03T14:25:29.331Z,101525.06
2023-04-03T14:29:31.189Z,101514.06
2023-04-03T14:33:35.863Z,101506.22
2023-04-03T14:37:37.803Z,101499.16
2023-04-03T14:41:39.331Z,101505.09
2023-04-03T14:45:40.951Z,101504.13
2023-04-03T14:49:43.044Z,101521.06
2023-04-03T14:53:45.927Z,101497.63
2023-04-03T14:57:47.820Z,101495.75
2023-04-03T15:01:49.944Z,101496.94
2023-04-03T15:05:51.619Z,101495.47
2023-04-03T15:09:53.418Z,101482.72
2023-04-03T15:13:54.961Z,101479.34
2023-04-03T15:17:58.820Z,101478.22
2023-04-03T15:22:00.931Z,101480.66
2023-04-03T15:26:03.175Z,101474.84
2023-04-03T15:30:06.613Z,101467.28
2023-04-03T15:34:08.198Z,101478.66
2023-04-03T15:38:10.948Z,101471.63
2023-04-03T15:42:13.531Z,101488.16
2023-04-03T15:46:15.733Z,101491.16
2023-04-03T15:50:17.513Z,101481.56
2023-04-03T15:54:19.301Z,101472.06
2023-04-03T15:58:20.928Z,101474.09
2023-04-03T16:02:22.582Z,101476.72
2023-04-03T16:06:25.845Z,101478.41
2023-04-03T16:10:28.177Z,101481.38
2023-04-03T16:14:31.261Z,101490.38
2023-04-03T16:18:35.258Z,101489.25
2023-04-03T16:22:37.830Z,101478.97
2023-04-03T16:26:39.421Z,101485.81
2023-04-03T16:30:42.609Z,101484.94
2023-04-03T16:34:45.013Z,101481.19
2023-04-03T16:38:46.617Z,101472.84
2023-04-03T16:42:48.317Z,101484.34
2023-04-03T16:46:49.892Z,101480.91
2023-04-03T16:50:54.511Z,101487.97
2023-04-03T16:54:56.661Z,101488.53
2023-04-03T16:58:58.489Z,101500.81
2023-04-03T17:03:00.400Z,101502.25
2023-04-03T17:07:06.842Z,101494.34
2023-04-03T17:11:08.430Z,101505.72
2023-04-03T17:15:10.741Z,101506.75
2023-04-03T17:19:12.799Z,101510.94
2023-04-03T17:23:14.419Z,101507.28
2023-04-03T17:27:16.067Z,101523.31
2023-04-03T17:31:17.681Z,101523.94
2023-04-03T17:35:19.248Z,101530.97
2023-04-03T17:39:20.842Z,101528.78
2023-04-03T17:43:22.443Z,101531.94
2023-04-03T17:47:25.916Z,101535.22
2023-04-03T17:51:27.518Z,101548.16
2023-04-03T17:55:29.160Z,101544.59
2023-04-03T17:59:30.860Z,101546.41
2023-04-03T18:03:32.736Z,101545.69
2023-04-03T18:07:34.362Z,101548.53
2023-04-03T18:11:36.264Z,101553.03
2023-04-03T18:15:43.774Z,101554.34
2023-04-03T18:19:45.416Z,101553.78
2023-04-03T18:23:50.065Z,101559.28
2023-04-03T18:27:51.725Z,101563.22
2023-04-03T18:31:56.332Z,101569.81
2023-04-03T18:35:58.003Z,101570.31
2023-04-03T18:39:59.696Z,101563.44
2023-04-03T18:44:04.096Z,101567.44
2023-04-03T18:48:05.917Z,101576.41
2023-04-03T18:52:07.615Z,101576.69
2023-04-03T18:56:09.302Z,101576.31
2023-04-03T19:00:11.475Z,101586.19
2023-04-03T19:04:13.750Z,101586.88
2023-04-03T19:08:15.522Z,101590.69
2023-04-03T19:12:17.167Z,101592.94
2023-04-03T19:16:18.798Z,101596.84
2023-04-03T19:20:20.883Z,101600.84
2023-04-03T19:24:22.479Z,101606.50
2023-04-03T19:28:24.036Z,101600.78
2023-04-03T19:32:26.090Z,101609.47
2023-04-03T19:36:27.744Z,101610.06
2023-04-03T19:40:29.646Z,101599.66
2023-04-03T19:44:33.820Z,101611.53
2023-04-03T19:48:36.237Z,101616.31
2023-04-03T19:52:37.867Z,101615.00
2023-04-03T19:56:39.681Z,101614.69
2023-04-03T20:00:41.689Z,101623.59
2023-04-03T20:04:43.454Z,101630.69
2023-04-03T20:08:45.100Z,101632.72
2023-04-03T20:12:46.713Z,101625.31
2023-04-03T20:16:48.450Z,101625.00
2023-04-03T20:20:55.181Z,101626.44
2023-04-03T20:24:58.788Z,101632.78
2023-04-03T20:29:04.144Z,101631.38
2023-04-03T20:33:06.267Z,101636.78
2023-04-03T20:37:09.486Z,101631.34
2023-04-03T20:41:11.004Z,101632.81
2023-04-03T20:45:13.270Z,101636.03
2023-04-03T20:49:14.835Z,101624.75
2023-04-03T20:53:18.849Z,101637.22
2023-04-03T20:57:20.900Z,101629.91
2023-04-03T21:01:23.826Z,101625.28
2023-04-03T21:05:30.378Z,101627.38
2023-04-03T21:10:09.802Z,101629.59
2023-04-03T21:14:49.422Z,101630.59
2023-04-03T21:19:04.269Z,101630.25
2023-04-03T21:23:06.221Z,101637.78
2023-04-03T21:27:08.275Z,101636.78
2023-04-03T21:31:11.641Z,101640.44
2023-04-03T21:35:13.439Z,101629.81
2023-04-03T21:39:15.517Z,101643.19
2023-04-03T21:43:17.724Z,101643.72
2023-04-03T21:47:19.562Z,101648.69
2023-04-03T21:51:21.476Z,101646.81
2023-04-03T21:55:23.502Z,101637.97
2023-04-03T21:59:25.496Z,101643.69
2023-04-03T22:03:27.208Z,101636.72
2023-04-03T22:07:28.778Z,101641.88
2023-04-03T22:11:30.490Z,101640.66
2023-04-03T22:15:36.952Z,101648.03
2023-04-03T22:19:39.097Z,101648.84
2023-04-03T22:23:40.728Z,101641.63
2023-04-03T22:27:42.341Z,101645.94
2023-04-03T22:31:43.978Z,101647.28
2023-04-03T22:35:49.444Z,101645.47
2023-04-03T22:39:51.051Z,101642.47
2023-04-03T22:43:52.600Z,101638.84
2023-04-03T22:47:58.499Z,101635.06
2023-04-03T22:52:00.401Z,101642.69
2023-04-03T22:56:04.861Z,101636.59
2023-04-03T23:00:07.141Z,101639.91
2023-04-03T23:04:08.711Z,101637.16
2023-04-03T23:08:10.308Z,101648.03
2023-04-03T23:12:12.122Z,101639.19
2023-04-03T23:16:13.753Z,101643.28
2023-04-03T23:20:15.643Z,101650.13
2023-04-03T23:24:17.226Z,101643.31
2023-04-03T23:28:18.841Z,101649.81
2023-04-03T23:32:20.394Z,101648.56
2023-04-03T23:36:22.102Z,101647.69
2023-04-03T23:40:23.646Z,101647.69
2023-04-03T23:44:25.420Z,101645.56
2023-04-03T23:48:26.967Z,101647.72
2023-04-03T23:52:28.507Z,101647.34
2023-04-03T23:56:31.424Z,101642.69
